Skip Navigation LinksHome page > Weather > Current weather Skip Navigation Links

Current Weather

Ronald Reagan Washington National, Washington

For information only: do not use for flight planning or navigation.
Latest weather
Observation time Monday, December 6, 2021 8:52 AM EST
Local time Monday, December 6, 2021 9:12 AM EST
Flight conditions Marginal Visual Meteorological Conditions
Winds
Wind direction South (190°)
Wind speed 14 mph
Visibility 10 mi.
Sky condition
Ceiling 2,600 ft. broken clouds
Cloud layer few clouds 1,500 ft.
Cloud layer broken clouds 2,600 ft.
Cloud layer overcast 11,000 ft.
Temperature 51°F
Dewpoint 43°F
Altimeter 29.92 in.Hg
Derived measurements
Relative humidity 74%
Density altitude -372 ft.
Sea-level pressure 29.91 in.Hg
Remarks
Automated weather observing station with precipitation discriminator.
METAR KDCA 061352Z 19012KT 10SM FEW015 BKN026 OVC110 11/06 A2992 RMK AO2 SLP130 T01060061

Settings

Location code

InnerDrive.Weather 4.0.6770.0 Release CLR 4.0.30319.42000
Copyright ©2018 Inner Drive Technology. All rights reserved. Portions Copyright ©1986-2018 David Braverman.

Find weather

Site navigation


Skip Navigation Links

Place info

Page info

PayPal - The safer, easier way to pay online!

Return home.

Copyright ©2021 Inner Drive Technology. Purveyors of fine, hand-crafted computer software. Page printed 2021-12-06T14:13:00 UTC.